Time;durP1;ratioP1;P1;durP2;ratioP2;P2;SDS_P1;SDS_P2;PMS_P1;PMS_P2;Temp;Humidity;BMP_temperature;BMP_pressure;BME280_temperature;BME280_humidity;BME280_pressure;Samples;Min_cycle;Max_cycle;Signal;HPM_P1;HPM_P2
2022/06/09 00:01:13;;;;;;;;;1.67;1.67;;;;;17.45;56.57;101108.06;5054412;28;49249;-59
2022/06/09 00:03:47;;;;;;;;;2.67;2.00;;;;;17.46;56.83;101105.25;5060808;28;46807;-58
2022/06/09 00:06:13;;;;;;;;;3.00;1.33;;;;;17.47;57.01;101111.47;5048830;28;45455;-59
2022/06/09 00:08:41;;;;;;;;;2.33;1.33;;;;;17.44;56.26;101117.97;5069449;28;45313;-59
2022/06/09 00:11:08;;;;;;;;;1.00;1.00;;;;;17.36;56.50;101118.53;5062485;28;45490;-59
2022/06/09 00:13:34;;;;;;;;;1.00;1.00;;;;;17.39;56.62;101127.34;5036470;28;45391;-59
2022/06/09 00:16:01;;;;;;;;;2.00;2.00;;;;;17.36;56.53;101129.28;5058577;28;45346;-59
2022/06/09 00:18:27;;;;;;;;;3.00;2.00;;;;;17.34;56.73;101123.16;5060853;28;45382;-58
2022/06/09 00:20:52;;;;;;;;;4.00;1.00;;;;;17.33;56.40;101123.28;5062757;28;45396;-59
2022/06/09 00:23:18;;;;;;;;;2.33;1.33;;;;;17.33;56.68;101131.34;5061247;28;46013;-58
2022/06/09 00:25:44;;;;;;;;;2.00;2.00;;;;;17.35;56.49;101130.25;5056015;28;45487;-58
2022/06/09 00:28:09;;;;;;;;;2.00;0.00;;;;;17.29;56.48;101127.16;5060788;28;45360;-59
2022/06/09 00:30:35;;;;;;;;;3.67;2.67;;;;;17.28;56.69;101134.34;5055463;28;67746;-59
2022/06/09 00:33:00;;;;;;;;;1.33;1.33;;;;;17.25;56.49;101137.28;5069384;28;47026;-59
2022/06/09 00:35:26;;;;;;;;;5.00;2.00;;;;;17.23;56.43;101141.91;5053327;28;45403;-58
2022/06/09 00:37:52;;;;;;;;;3.67;1.33;;;;;17.16;56.30;101136.13;5060667;28;45327;-59
2022/06/09 00:40:17;;;;;;;;;1.33;1.33;;;;;17.11;56.42;101143.66;5057156;28;45949;-58
2022/06/09 00:42:43;;;;;;;;;2.00;2.00;;;;;17.10;56.88;101136.56;5054780;28;75400;-58
2022/06/09 00:45:21;;;;;;;;;3.00;1.67;;;;;17.14;56.46;101129.13;5047657;28;67278;-58
2022/06/09 00:47:46;;;;;;;;;3.67;2.00;;;;;17.11;56.50;101132.06;5060076;28;45379;-57
2022/06/09 00:50:16;;;;;;;;;0.67;0.67;;;;;17.09;56.77;101144.72;5060330;28;69094;-58
2022/06/09 00:52:47;;;;;;;;;6.00;2.00;;;;;16.98;56.50;101140.13;5056120;28;46089;-58
2022/06/09 00:55:17;;;;;;;;;3.00;2.00;;;;;16.96;57.16;101139.38;5059918;28;45465;-58
2022/06/09 00:58:10;;;;;;;;;1.67;1.67;;;;;16.89;57.22;101136.25;5066049;28;45287;-58
2022/06/09 01:00:51;;;;;;;;;2.67;2.00;;;;;16.85;57.11;101137.44;5031696;28;45426;-57
2022/06/09 01:03:18;;;;;;;;;2.33;2.33;;;;;16.77;56.91;101135.28;5055643;28;45335;-58
2022/06/09 01:05:45;;;;;;;;;1.67;1.33;;;;;16.75;57.36;101144.41;5059892;28;45612;-58
2022/06/09 01:08:11;;;;;;;;;2.00;2.00;;;;;16.76;57.32;101146.16;5058269;28;45348;-58
2022/06/09 01:10:37;;;;;;;;;4.67;2.00;;;;;16.78;56.99;101147.75;5061473;28;45486;-57
2022/06/09 01:13:02;;;;;;;;;3.33;1.00;;;;;16.81;56.94;101146.69;5058951;28;46075;-58
2022/06/09 01:15:36;;;;;;;;;1.67;1.00;;;;;16.83;57.52;101147.41;5059518;28;45312;-58
2022/06/09 01:18:19;;;;;;;;;2.33;1.00;;;;;16.69;57.45;101148.41;5049230;28;45453;-58
2022/06/09 01:20:48;;;;;;;;;2.33;1.33;;;;;16.61;57.16;101154.31;5068550;28;45281;-58
2022/06/09 01:23:34;;;;;;;;;2.67;2.00;;;;;16.59;57.51;101156.25;5059366;28;45387;-58
2022/06/09 01:26:16;;;;;;;;;2.00;1.00;;;;;16.58;57.89;101156.34;5059222;28;45300;-58
2022/06/09 01:29:00;;;;;;;;;3.00;1.33;;;;;16.57;57.66;101157.31;5056675;28;45413;-58
2022/06/09 01:31:29;;;;;;;;;1.33;1.33;;;;;16.56;57.57;101152.91;5063590;28;45158;-58
2022/06/09 01:34:08;;;;;;;;;3.00;2.00;;;;;16.54;58.08;101158.38;5059386;28;45469;-58
2022/06/09 01:36:44;;;;;;;;;2.00;2.00;;;;;16.52;57.62;101163.03;5056394;28;45303;-58
2022/06/09 01:39:09;;;;;;;;;3.00;2.00;;;;;16.45;57.93;101169.75;5070176;28;45263;-58
2022/06/09 01:41:35;;;;;;;;;4.33;0.33;;;;;16.46;57.91;101164.28;5063798;28;45371;-58
2022/06/09 01:44:02;;;;;;;;;5.00;2.00;;;;;16.49;58.17;101168.56;5059418;28;46227;-58
2022/06/09 01:46:35;;;;;;;;;2.67;1.00;;;;;16.48;58.30;101170.41;5045533;28;45955;-58
2022/06/09 01:49:21;;;;;;;;;1.00;1.00;;;;;16.42;58.06;101168.16;5058493;28;45646;-58
2022/06/09 01:51:48;;;;;;;;;1.33;1.33;;;;;16.45;58.97;101175.13;5043373;28;45673;-58
2022/06/09 01:54:24;;;;;;;;;3.33;1.67;;;;;16.46;58.10;101172.34;5038689;28;46961;-58
2022/06/09 01:57:17;;;;;;;;;1.67;1.67;;;;;16.50;58.05;101181.94;5055516;28;45433;-58
2022/06/09 01:59:50;;;;;;;;;3.33;2.00;;;;;16.49;58.28;101187.38;5039589;28;45630;-58
2022/06/09 02:02:19;;;;;;;;;2.67;2.00;;;;;16.47;58.18;101183.97;5039222;28;45391;-58
2022/06/09 02:04:48;;;;;;;;;4.00;2.00;;;;;16.46;58.23;101192.97;5044516;28;45528;-58
2022/06/09 02:07:14;;;;;;;;;3.67;1.00;;;;;16.38;58.36;101196.19;5040711;28;45336;-58
2022/06/09 02:09:40;;;;;;;;;2.00;1.33;;;;;16.36;58.25;101193.59;5042005;28;50679;-58
2022/06/09 02:12:17;;;;;;;;;3.67;1.00;;;;;16.33;58.05;101198.31;5044112;28;69444;-58
2022/06/09 02:14:50;;;;;;;;;2.00;1.67;;;;;16.33;58.70;101199.16;5058314;28;45955;-58
2022/06/09 02:17:17;;;;;;;;;2.00;2.00;;;;;16.34;58.54;101200.88;5064021;28;45327;-58
2022/06/09 02:19:43;;;;;;;;;3.50;0.00;;;;;16.31;58.84;101201.09;5058929;28;45399;-58
2022/06/09 02:22:11;;;;;;;;;2.33;2.00;;;;;16.33;58.62;101209.91;5069599;28;45844;-58
2022/06/09 02:24:36;;;;;;;;;1.00;1.00;;;;;16.35;58.79;101210.66;5058145;28;46325;-58
2022/06/09 02:27:02;;;;;;;;;4.00;1.00;;;;;16.33;58.68;101201.00;5058263;28;45308;-58
2022/06/09 02:29:27;;;;;;;;;6.33;1.33;;;;;16.30;58.88;101198.53;5060594;28;45409;-58
2022/06/09 02:31:53;;;;;;;;;4.00;1.00;;;;;16.26;58.71;101205.94;5058839;28;68644;-58
2022/06/09 02:34:18;;;;;;;;;0.67;0.67;;;;;16.27;58.99;101201.41;5038607;28;45462;-58
2022/06/09 02:36:43;;;;;;;;;4.33;2.33;;;;;16.24;58.71;101207.00;5056724;28;62416;-58
2022/06/09 02:39:09;;;;;;;;;1.00;1.00;;;;;16.23;58.41;101207.94;5057488;28;45503;-58
2022/06/09 02:41:34;;;;;;;;;2.00;2.00;;;;;16.19;58.74;101204.59;5059010;28;48194;-59
2022/06/09 02:44:00;;;;;;;;;2.00;1.00;;;;;16.16;59.02;101207.50;5056936;28;47255;-59
2022/06/09 02:46:25;;;;;;;;;4.00;2.67;;;;;16.17;58.92;101211.91;5058939;28;46920;-59
2022/06/09 02:48:52;;;;;;;;;2.33;2.33;;;;;16.17;58.92;101217.28;5060342;28;64474;-59
2022/06/09 02:51:30;;;;;;;;;1.00;1.00;;;;;16.11;58.80;101210.47;5058636;28;45592;-59
2022/06/09 02:53:58;;;;;;;;;3.00;3.00;;;;;16.12;58.72;101219.41;5056213;28;45486;-59
2022/06/09 02:56:24;;;;;;;;;1.33;0.67;;;;;16.13;58.83;101210.41;5057997;28;45333;-59
2022/06/09 02:58:50;;;;;;;;;1.00;1.00;;;;;16.18;59.18;101216.31;5054670;28;45333;-59
2022/06/09 03:01:16;;;;;;;;;3.00;0.67;;;;;16.20;58.84;101217.94;5053115;28;45545;-59
2022/06/09 03:03:41;;;;;;;;;5.33;2.00;;;;;16.20;58.63;101223.31;5054999;28;46172;-59
2022/06/09 03:06:07;;;;;;;;;2.33;2.33;;;;;16.22;58.86;101217.84;5057056;28;68369;-59
2022/06/09 03:08:32;;;;;;;;;1.00;1.00;;;;;16.24;58.85;101220.41;5056735;28;68439;-59
2022/06/09 03:10:58;;;;;;;;;7.00;2.00;;;;;16.26;58.68;101215.81;5066331;28;45940;-59
2022/06/09 03:13:23;;;;;;;;;5.00;4.00;;;;;16.28;58.54;101217.44;5058835;28;45730;-59
2022/06/09 03:15:50;;;;;;;;;3.00;1.00;;;;;16.24;59.02;101220.41;5057691;28;57846;-59
2022/06/09 03:18:15;;;;;;;;;4.00;2.00;;;;;16.16;58.46;101211.03;5058247;28;45376;-59
2022/06/09 03:20:41;;;;;;;;;3.00;3.00;;;;;16.15;59.12;101220.06;5062987;28;45603;-59
2022/06/09 03:23:06;;;;;;;;;2.00;2.00;;;;;16.18;58.63;101219.00;5060174;28;45444;-59
2022/06/09 03:25:32;;;;;;;;;1.00;1.00;;;;;16.19;58.90;101218.91;5056764;28;64714;-59
2022/06/09 03:27:57;;;;;;;;;2.00;1.67;;;;;16.16;59.02;101218.25;5061071;28;45504;-59
2022/06/09 03:30:22;;;;;;;;;4.67;1.67;;;;;16.13;58.91;101224.66;5061463;28;66991;-59
2022/06/09 03:32:48;;;;;;;;;3.00;1.33;;;;;16.04;59.13;101226.13;5061061;28;54264;-59
2022/06/09 03:35:14;;;;;;;;;6.33;2.67;;;;;15.97;58.67;101223.97;5070536;28;45177;-59
2022/06/09 03:37:39;;;;;;;;;3.33;2.00;;;;;15.91;59.36;101227.91;5060068;28;62432;-59
2022/06/09 03:40:06;;;;;;;;;4.33;2.33;;;;;15.91;59.52;101235.97;5060966;28;67012;-59
2022/06/09 03:42:32;;;;;;;;;6.00;2.67;;;;;15.91;59.53;101235.97;5059038;28;45493;-59
2022/06/09 03:44:57;;;;;;;;;3.67;3.00;;;;;15.91;59.27;101237.81;5060349;28;45427;-59
2022/06/09 03:47:22;;;;;;;;;4.67;2.00;;;;;15.91;59.08;101238.66;5060145;28;63439;-59
2022/06/09 03:49:48;;;;;;;;;2.00;2.00;;;;;15.91;59.01;101244.00;5063640;28;55135;-59
2022/06/09 03:52:14;;;;;;;;;4.00;3.67;;;;;15.90;59.59;101244.13;5068481;28;46110;-59
2022/06/09 03:54:39;;;;;;;;;1.67;1.67;;;;;15.89;59.37;101256.66;5060194;28;68378;-59
2022/06/09 03:57:05;;;;;;;;;2.00;2.00;;;;;15.88;59.15;101258.47;5058865;28;45273;-59
2022/06/09 03:59:31;;;;;;;;;4.00;3.00;;;;;15.81;59.70;101269.72;5051472;28;45503;-59
2022/06/09 04:01:56;;;;;;;;;0.67;0.00;;;;;15.80;59.97;101276.00;5067762;28;46313;-59
2022/06/09 04:04:22;;;;;;;;;1.67;1.67;;;;;15.80;59.71;101273.31;5060130;28;45254;-59
2022/06/09 04:06:47;;;;;;;;;7.00;4.00;;;;;15.80;59.72;101271.50;5056157;28;45225;-59
2022/06/09 04:09:12;;;;;;;;;5.00;3.00;;;;;15.80;59.97;101270.63;5060796;28;62220;-59
2022/06/09 04:11:38;;;;;;;;;5.00;1.67;;;;;15.76;59.79;101274.47;5061384;28;47053;-59
2022/06/09 04:14:03;;;;;;;;;3.00;2.00;;;;;15.76;59.74;101272.66;5059392;28;52823;-59
2022/06/09 04:16:31;;;;;;;;;4.33;1.67;;;;;15.79;60.05;101277.81;5059273;28;64856;-59
2022/06/09 04:18:59;;;;;;;;;3.00;3.00;;;;;15.80;59.76;101282.25;5068019;28;45495;-59
2022/06/09 04:21:26;;;;;;;;;3.67;2.00;;;;;15.81;59.86;101278.63;5057819;28;46191;-59
2022/06/09 04:23:51;;;;;;;;;7.33;2.67;;;;;15.83;60.38;101286.56;5060863;28;45387;-59
2022/06/09 04:26:23;;;;;;;;;4.67;1.67;;;;;15.81;60.18;101286.69;5067551;28;45449;-59
2022/06/09 04:28:49;;;;;;;;;4.33;2.33;;;;;15.80;59.69;101286.72;5060838;28;45324;-59
2022/06/09 04:31:15;;;;;;;;;6.00;3.00;;;;;15.78;60.02;101285.97;5066050;28;46001;-59
2022/06/09 04:33:41;;;;;;;;;1.33;1.00;;;;;15.74;60.10;101300.53;5048308;28;45448;-59
2022/06/09 04:36:07;;;;;;;;;4.33;2.00;;;;;15.72;60.21;101305.97;5060284;28;45356;-59
2022/06/09 04:38:33;;;;;;;;;3.00;2.00;;;;;15.70;60.32;101308.78;5058793;28;45228;-59
2022/06/09 04:40:58;;;;;;;;;3.33;2.00;;;;;15.70;60.36;101308.78;5064399;28;46000;-59
2022/06/09 04:43:23;;;;;;;;;3.00;3.00;;;;;15.70;60.10;101305.25;5058196;28;65415;-59
2022/06/09 04:45:49;;;;;;;;;1.50;1.50;;;;;15.68;60.29;101312.50;5059893;28;69564;-59
2022/06/09 04:48:15;;;;;;;;;1.67;1.67;;;;;15.67;60.33;101318.81;5058770;28;62874;-59
2022/06/09 04:50:44;;;;;;;;;2.67;1.00;;;;;15.67;59.99;101322.38;5064247;28;46313;-59
2022/06/09 04:53:10;;;;;;;;;2.67;2.67;;;;;15.71;60.02;101323.06;5059255;28;45705;-59
2022/06/09 04:55:37;;;;;;;;;5.67;2.33;;;;;15.76;60.05;101322.75;5059884;28;45341;-59
2022/06/09 04:58:02;;;;;;;;;6.33;3.33;;;;;15.77;60.20;101335.22;5060126;28;45606;-57
2022/06/09 05:00:28;;;;;;;;;1.67;1.67;;;;;15.73;60.35;101337.22;5067783;28;45334;-58
2022/06/09 05:02:55;;;;;;;;;2.00;2.00;;;;;15.65;60.56;101344.88;5062602;28;46688;-59
2022/06/09 05:05:24;;;;;;;;;5.67;1.33;;;;;15.58;61.05;101343.53;5059608;28;45619;-59
2022/06/09 05:07:49;;;;;;;;;3.00;3.00;;;;;15.54;60.54;101348.25;5059935;28;45570;-58
2022/06/09 05:10:15;;;;;;;;;5.33;3.33;;;;;15.58;60.92;101341.75;5059263;28;71581;-58
2022/06/09 05:12:42;;;;;;;;;1.00;1.00;;;;;15.64;61.07;101346.69;5059640;28;45363;-59
2022/06/09 05:15:10;;;;;;;;;6.33;2.33;;;;;15.68;60.30;101342.00;5059870;28;45177;-58
2022/06/09 05:17:36;;;;;;;;;2.67;2.00;;;;;15.72;60.23;101348.88;5059457;28;45440;-59
2022/06/09 05:20:01;;;;;;;;;4.33;3.00;;;;;15.76;60.61;101349.56;5059989;28;45727;-58
2022/06/09 05:22:26;;;;;;;;;6.33;2.00;;;;;15.78;60.73;101358.38;5055923;28;45321;-58
2022/06/09 05:24:52;;;;;;;;;5.67;2.67;;;;;15.82;60.76;101360.78;5064341;28;64283;-58
2022/06/09 05:27:17;;;;;;;;;1.00;1.00;;;;;15.81;60.44;101364.47;5060530;28;46860;-59
2022/06/09 05:29:43;;;;;;;;;4.00;2.33;;;;;15.80;61.31;101368.06;5059533;28;46302;-58
2022/06/09 05:32:08;;;;;;;;;4.00;2.67;;;;;15.76;61.19;101371.03;5063327;28;45427;-58
2022/06/09 05:34:34;;;;;;;;;2.00;2.00;;;;;15.70;61.36;101367.75;5059701;28;69162;-58
2022/06/09 05:36:59;;;;;;;;;2.00;2.00;;;;;15.73;61.12;101379.28;5056793;28;45525;-59
2022/06/09 05:44:58;;;;;;;;;3.00;3.00;;;;;15.80;61.02;101386.84;5040495;28;45312;-58
2022/06/09 05:47:24;;;;;;;;;4.00;1.00;;;;;15.85;61.04;101386.56;5052750;28;45431;-58
2022/06/09 05:49:51;;;;;;;;;2.00;2.00;;;;;15.91;61.04;101393.38;5063174;28;46073;-57
2022/06/09 05:52:19;;;;;;;;;1.67;1.67;;;;;15.91;61.05;101391.56;5060280;28;45520;-58
2022/06/09 05:54:45;;;;;;;;;3.00;3.00;;;;;15.94;60.54;101395.84;5052379;28;45305;-58
2022/06/09 05:57:10;;;;;;;;;3.33;2.33;;;;;15.95;60.76;101398.44;5050042;28;45281;-58
2022/06/09 05:59:37;;;;;;;;;2.00;2.00;;;;;15.97;61.08;101401.91;5054775;28;45445;-57
2022/06/09 06:02:03;;;;;;;;;4.33;3.00;;;;;16.02;61.27;101405.16;5053857;28;45229;-58
2022/06/09 06:04:28;;;;;;;;;2.00;2.00;;;;;16.09;60.93;101402.06;5060648;28;45303;-59
2022/06/09 06:06:53;;;;;;;;;5.33;3.33;;;;;16.14;60.44;101408.00;5058298;28;63738;-59
2022/06/09 06:09:21;;;;;;;;;2.67;2.00;;;;;16.19;60.61;101413.94;5067771;28;71025;-59
2022/06/09 06:11:47;;;;;;;;;2.67;2.67;;;;;16.27;61.04;101416.13;5061522;28;45317;-59
2022/06/09 06:14:13;;;;;;;;;4.00;2.00;;;;;16.33;60.46;101411.22;5062667;28;45320;-59
2022/06/09 06:16:39;;;;;;;;;2.33;1.00;;;;;16.43;60.73;101416.03;5057166;28;45396;-58
2022/06/09 06:19:07;;;;;;;;;2.00;2.00;;;;;16.53;60.44;101418.00;5066331;28;46787;-58
2022/06/09 06:21:33;;;;;;;;;5.33;3.00;;;;;16.64;60.56;101425.34;5058122;28;45249;-58
2022/06/09 06:23:58;;;;;;;;;3.33;2.67;;;;;16.76;60.49;101418.28;5060919;28;45485;-58
2022/06/09 06:26:24;;;;;;;;;2.00;2.00;;;;;16.86;59.66;101422.09;5056597;28;69650;-58
2022/06/09 06:28:50;;;;;;;;;3.00;2.00;;;;;16.90;59.94;101427.28;5068191;28;75573;-58
2022/06/09 06:31:16;;;;;;;;;4.33;2.00;;;;;16.92;59.55;101418.19;5067766;28;45181;-58
2022/06/09 06:33:41;;;;;;;;;6.00;2.33;;;;;16.92;59.54;101426.25;5063196;28;45427;-59
2022/06/09 06:36:07;;;;;;;;;2.33;2.00;;;;;17.00;60.10;101436.44;5066973;28;45347;-58
2022/06/09 06:38:33;;;;;;;;;4.00;2.67;;;;;17.18;59.85;101429.84;5061615;28;47052;-59
2022/06/09 06:40:58;;;;;;;;;8.00;3.00;;;;;17.39;59.32;101429.34;5069177;28;45332;-58
2022/06/09 06:43:24;;;;;;;;;4.00;2.67;;;;;17.54;59.36;101427.41;5060880;28;45290;-59
2022/06/09 06:45:49;;;;;;;;;3.33;3.33;;;;;17.77;58.43;101428.50;5055165;28;45477;-59
2022/06/09 06:48:15;;;;;;;;;3.33;3.00;;;;;17.93;57.58;101435.50;5058489;28;46137;-58
2022/06/09 06:50:41;;;;;;;;;6.00;3.00;;;;;18.06;58.23;101438.19;5062605;28;45331;-58
2022/06/09 06:53:06;;;;;;;;;2.00;2.00;;;;;18.16;57.57;101444.59;5054785;28;45299;-58
2022/06/09 06:55:32;;;;;;;;;4.67;3.67;;;;;18.28;56.95;101443.72;5056434;28;45509;-58
2022/06/09 06:57:57;;;;;;;;;3.00;2.67;;;;;18.43;56.78;101444.44;5057538;28;46077;-58
2022/06/09 07:00:24;;;;;;;;;2.33;2.00;;;;;18.61;55.84;101446.75;5051740;28;67580;-58
2022/06/09 07:02:50;;;;;;;;;3.67;2.33;;;;;18.81;55.72;101451.53;5061961;28;45296;-59
2022/06/09 07:05:17;;;;;;;;;3.67;3.00;;;;;19.07;54.21;101455.97;5067406;28;45516;-59
2022/06/09 07:07:43;;;;;;;;;4.33;2.33;;;;;19.34;55.30;101464.63;5067389;28;45462;-59
2022/06/09 07:10:10;;;;;;;;;3.00;3.00;;;;;19.58;54.26;101465.56;5060900;28;66401;-59
2022/06/09 07:12:36;;;;;;;;;2.33;1.67;;;;;19.78;53.76;101475.66;5057958;28;45425;-59
2022/06/09 07:15:03;;;;;;;;;6.00;4.00;;;;;20.05;53.52;101481.72;5057468;28;45562;-59
2022/06/09 07:17:28;;;;;;;;;8.33;3.00;;;;;20.33;52.08;101488.47;5058505;28;46985;-58
2022/06/09 07:19:53;;;;;;;;;4.00;2.50;;;;;20.40;51.13;101486.13;5055376;28;66539;-59
2022/06/09 07:22:19;;;;;;;;;1.00;1.00;;;;;20.53;51.73;101486.00;5056812;28;50506;-58
2022/06/09 07:24:45;;;;;;;;;4.00;3.00;;;;;20.80;50.55;101488.31;5057333;28;45590;-58
2022/06/09 07:27:10;;;;;;;;;8.00;3.67;;;;;21.07;50.13;101481.59;5058157;28;45909;-58
2022/06/09 07:29:36;;;;;;;;;5.75;2.50;;;;;21.39;49.78;101486.97;5054051;28;70035;-58
2022/06/09 07:32:01;;;;;;;;;5.50;4.00;;;;;21.70;49.75;101495.19;5050799;28;65947;-58
2022/06/09 07:34:27;;;;;;;;;4.50;2.75;;;;;22.06;48.84;101497.50;5054569;28;45451;-58
2022/06/09 07:36:53;;;;;;;;;2.00;2.00;;;;;22.52;47.67;101490.75;5061408;28;46374;-59
2022/06/09 07:39:18;;;;;;;;;4.25;3.50;;;;;22.98;42.70;101493.81;5060105;28;57010;-58
2022/06/09 07:41:44;;;;;;;;;4.25;3.00;;;;;23.42;44.14;101498.88;5054338;28;66932;-59
2022/06/09 07:44:10;;;;;;;;;3.50;2.25;;;;;23.90;45.51;101497.94;5059618;28;45421;-59
2022/06/09 07:46:36;;;;;;;;;5.00;3.50;;;;;24.49;44.71;101508.56;5057807;28;46167;-59
2022/06/09 07:49:02;;;;;;;;;2.00;2.00;;;;;25.07;43.50;101495.63;5060834;28;45411;-58
2022/06/09 07:51:29;;;;;;;;;4.50;3.00;;;;;25.57;41.43;101511.41;5052993;28;45209;-59
2022/06/09 07:53:55;;;;;;;;;2.50;2.50;;;;;26.08;38.17;101510.75;5061119;28;45630;-59
2022/06/09 07:56:21;;;;;;;;;1.75;1.50;;;;;26.31;40.94;101512.91;5060273;28;45376;-59
2022/06/09 07:58:46;;;;;;;;;4.75;3.25;;;;;26.74;38.75;101505.63;5048363;28;45489;-59
2022/06/09 08:01:13;;;;;;;;;2.00;2.00;;;;;27.21;37.93;101501.44;5043085;28;45406;-59
2022/06/09 08:03:40;;;;;;;;;2.50;2.50;;;;;27.78;37.69;101497.81;5048832;28;45355;-59
2022/06/09 08:06:06;;;;;;;;;2.50;1.25;;;;;28.33;34.88;101509.84;5050166;28;46167;-59
2022/06/09 08:08:32;;;;;;;;;1.50;1.25;;;;;28.88;36.90;101515.41;5052383;28;45252;-60
2022/06/09 08:10:57;;;;;;;;;0.25;0.25;;;;;29.59;36.38;101511.63;5060947;28;45293;-60
2022/06/09 08:13:23;;;;;;;;;2.00;2.00;;;;;30.20;34.56;101509.63;5049668;28;52388;-60
2022/06/09 08:15:48;;;;;;;;;11.00;4.50;;;;;30.69;33.27;101518.31;5057695;28;66490;-60
2022/06/09 08:18:14;;;;;;;;;4.25;2.25;;;;;31.09;33.08;101518.75;5050570;28;45218;-60
2022/06/09 08:20:41;;;;;;;;;4.00;3.00;;;;;31.57;32.44;101526.38;5050225;28;67137;-60
2022/06/09 08:23:10;;;;;;;;;3.50;3.50;;;;;31.90;32.00;101524.97;5049765;28;45423;-60
2022/06/09 08:25:37;;;;;;;;;1.50;1.00;;;;;31.96;28.41;101533.25;5051342;28;45325;-60
2022/06/09 08:28:03;;;;;;;;;4.00;2.00;;;;;31.84;30.81;101538.47;5056669;28;45406;-60
2022/06/09 08:30:29;;;;;;;;;2.75;1.50;;;;;32.26;30.64;101543.19;5053478;28;45338;-60
2022/06/09 08:32:54;;;;;;;;;5.25;3.25;;;;;32.15;29.86;101541.81;5060808;28;45527;-60
2022/06/09 08:35:20;;;;;;;;;4.00;2.00;;;;;31.97;30.00;101554.22;5058225;28;64598;-60
2022/06/09 08:37:48;;;;;;;;;4.00;3.00;;;;;32.41;30.43;101554.06;5060325;28;45284;-60
2022/06/09 08:40:21;;;;;;;;;5.00;2.00;;;;;33.12;28.95;101550.94;5053204;28;45388;-60
2022/06/09 08:43:10;;;;;;;;;4.00;2.25;;;;;33.48;26.74;101559.94;5037218;28;45518;-60
2022/06/09 08:45:40;;;;;;;;;3.00;3.00;;;;;33.67;27.82;101546.38;5044621;28;46190;-60
2022/06/09 08:48:09;;;;;;;;;1.75;1.75;;;;;33.87;26.99;101550.00;5037651;28;45335;-60
2022/06/09 08:50:39;;;;;;;;;2.25;2.25;;;;;33.84;26.58;101538.53;5039822;28;45405;-60
2022/06/09 08:53:41;;;;;;;;;1.75;1.75;;;;;32.79;26.93;101546.22;5042316;28;45413;-60
2022/06/09 08:56:26;;;;;;;;;3.25;1.50;;;;;32.02;27.41;101537.13;5042052;28;45445;-60
2022/06/09 08:58:58;;;;;;;;;3.00;3.00;;;;;31.96;26.40;101532.41;5053551;28;45466;-60
2022/06/09 09:01:39;;;;;;;;;2.75;1.00;;;;;32.60;26.93;101528.53;5046905;28;45336;-60
2022/06/09 09:04:15;;;;;;;;;0.75;0.75;;;;;33.15;26.01;101525.75;5045494;28;45332;-60
2022/06/09 09:06:45;;;;;;;;;0.50;0.50;;;;;33.81;26.57;101526.03;5055088;28;46282;-60
2022/06/09 09:09:31;;;;;;;;;1.00;1.00;;;;;34.62;25.61;101532.16;5040069;28;45396;-60
2022/06/09 09:12:04;;;;;;;;;2.00;1.00;;;;;34.57;24.78;101529.22;5060273;28;45423;-60
2022/06/09 09:14:35;;;;;;;;;1.75;1.75;;;;;33.70;24.78;101530.25;5051307;28;45540;-60
2022/06/09 09:17:02;;;;;;;;;2.50;1.00;;;;;32.89;25.24;101525.69;5052076;28;45273;-60
2022/06/09 09:19:54;;;;;;;;;4.00;2.00;;;;;32.72;25.58;101538.94;5045864;28;45508;-60
2022/06/09 09:23:02;;;;;;;;;2.00;1.00;;;;;32.40;25.94;101538.59;5030462;28;45392;-60
2022/06/09 09:25:42;;;;;;;;;1.75;1.75;;;;;32.01;26.08;101540.91;4957622;28;45410;-60
2022/06/09 09:28:13;;;;;;;;;2.50;0.00;;;;;32.25;26.53;101536.00;4951808;28;46370;-60
2022/06/09 09:31:00;;;;;;;;;2.00;1.50;;;;;31.78;25.88;101550.25;5018726;28;45493;-60
2022/06/09 09:33:27;;;;;;;;;2.00;2.00;;;;;31.16;26.10;101552.63;5041337;28;45736;-60
2022/06/09 09:36:00;;;;;;;;;1.75;1.75;;;;;30.39;26.90;101547.63;5058316;28;45510;-60
2022/06/09 09:38:33;;;;;;;;;2.75;2.00;;;;;29.62;28.24;101555.09;5032927;28;45494;-60
2022/06/09 09:41:00;;;;;;;;;1.75;1.25;;;;;29.04;28.53;101555.50;5038721;28;45484;-59
2022/06/09 09:43:34;;;;;;;;;0.75;0.75;;;;;28.55;29.13;101553.84;5058666;28;45731;-60
2022/06/09 09:46:00;;;;;;;;;1.50;1.00;;;;;27.93;29.44;101538.97;5053721;28;45459;-59
2022/06/09 09:48:40;;;;;;;;;0.75;0.75;;;;;27.75;30.39;101550.09;5048532;28;52935;-60
2022/06/09 09:51:13;;;;;;;;;3.50;0.75;;;;;28.06;30.00;101552.97;5041423;28;45225;-59
2022/06/09 09:53:45;;;;;;;;;3.00;1.00;;;;;28.81;29.50;101555.47;5057752;28;45632;-60
2022/06/09 09:56:16;;;;;;;;;2.00;1.50;;;;;29.88;28.34;101553.84;5059299;28;45743;-60
2022/06/09 09:58:48;;;;;;;;;0.75;0.75;;;;;30.89;27.89;101548.72;5045975;28;46185;-60
2022/06/09 10:01:25;;;;;;;;;0.00;0.00;;;;;31.44;26.54;101557.34;5055863;28;45254;-60
2022/06/09 10:09:37;;;;;;;;;4.75;3.00;;;;;29.12;27.37;101566.38;5062490;28;45699;-59
2022/06/09 10:12:12;;;;;;;;;3.25;1.00;;;;;28.39;28.21;101571.16;5045046;28;45228;-59
2022/06/09 10:14:48;;;;;;;;;0.25;0.25;;;;;27.83;29.39;101574.66;5053794;28;45481;-59
2022/06/09 10:17:35;;;;;;;;;3.75;3.00;;;;;27.35;29.50;101573.59;5058991;28;45337;-59
2022/06/09 10:20:06;;;;;;;;;6.25;1.75;;;;;26.86;29.36;101580.66;5057609;28;45335;-59
2022/06/09 10:22:35;;;;;;;;;4.75;2.00;;;;;26.38;30.96;101582.13;5050454;28;45283;-59
2022/06/09 10:25:17;;;;;;;;;3.25;0.50;;;;;25.97;31.70;101590.00;5058331;28;45248;-59
2022/06/09 10:27:45;;;;;;;;;1.25;1.25;;;;;25.67;32.13;101582.13;5054342;28;45510;-58
2022/06/09 10:30:16;;;;;;;;;0.50;0.00;;;;;25.44;32.00;101584.47;5045358;28;46560;-58
2022/06/09 10:32:47;;;;;;;;;1.00;1.00;;;;;25.23;32.24;101585.59;5057016;28;45335;-58
2022/06/09 10:35:32;;;;;;;;;8.67;2.00;;;;;25.08;32.80;101593.47;5040325;28;45774;-58
2022/06/09 10:38:20;;;;;;;;;1.00;1.00;;;;;25.03;32.76;101584.03;5055898;28;45399;-58
2022/06/09 10:40:56;;;;;;;;;3.00;2.75;;;;;25.00;32.82;101581.63;5056104;28;46075;-58
2022/06/09 10:43:25;;;;;;;;;3.67;2.33;;;;;24.90;32.94;101582.53;5046823;28;45725;-58
2022/06/09 10:45:56;;;;;;;;;2.33;2.33;;;;;24.88;33.52;101589.13;5059832;28;46276;-58
2022/06/09 10:55:16;;;;;;;;;2.00;2.00;;;;;24.67;33.93;101592.13;5056202;28;45253;-58
2022/06/09 10:58:09;;;;;;;;;2.25;2.25;;;;;24.63;34.51;101598.78;5049705;28;45530;-59
2022/06/09 11:00:38;;;;;;;;;5.50;2.50;;;;;24.57;34.63;101601.09;5047213;28;45497;-58
2022/06/09 11:03:26;;;;;;;;;4.00;3.00;;;;;24.61;34.05;101601.66;5063332;28;46193;-59
2022/06/09 11:06:00;;;;;;;;;1.50;1.50;;;;;24.80;34.49;101606.22;5047070;28;45338;-58
2022/06/09 11:08:57;;;;;;;;;0.75;0.75;;;;;25.02;34.20;101607.66;5064638;28;45295;-60
2022/06/09 11:11:46;;;;;;;;;2.50;1.25;;;;;25.20;33.76;101593.22;5055068;28;45295;-59
2022/06/09 11:14:21;;;;;;;;;1.25;1.25;;;;;25.31;33.42;101601.16;5041485;28;46645;-58
2022/06/09 11:17:05;;;;;;;;;1.75;1.75;;;;;25.34;32.89;101600.84;5064923;28;45240;-59
2022/06/09 11:19:49;;;;;;;;;2.75;2.75;;;;;25.41;33.08;101606.59;5063418;28;45232;-59
2022/06/09 11:22:24;;;;;;;;;1.00;0.00;;;;;25.38;32.53;101601.44;5060930;28;45454;-60
2022/06/09 11:25:10;;;;;;;;;1.75;1.75;;;;;25.34;33.04;101610.91;5060334;28;45455;-59
2022/06/09 11:27:38;;;;;;;;;0.50;0.25;;;;;25.31;33.57;101605.78;5063193;28;45265;-60
2022/06/09 11:30:22;;;;;;;;;2.00;2.00;;;;;25.26;33.43;101612.50;5050619;28;45407;-59
2022/06/09 11:33:12;;;;;;;;;4.25;2.00;;;;;25.21;33.31;101606.69;5061111;28;45449;-59
2022/06/09 11:36:08;;;;;;;;;1.25;1.25;;;;;25.27;33.22;101603.34;5042204;28;46138;-60
2022/06/09 11:38:50;;;;;;;;;1.25;1.25;;;;;25.46;32.80;101600.66;5042512;28;45294;-59
2022/06/09 11:41:18;;;;;;;;;4.00;2.25;;;;;25.52;32.21;101605.50;5049373;28;45447;-59
2022/06/09 11:44:02;;;;;;;;;2.00;1.75;;;;;25.56;32.20;101605.00;5064334;28;45391;-59
2022/06/09 11:46:33;;;;;;;;;3.00;2.00;;;;;25.59;31.17;101609.28;5063979;28;46219;-59
2022/06/09 11:49:04;;;;;;;;;2.00;1.75;;;;;25.53;31.78;101610.78;5052465;28;45542;-59
2022/06/09 11:51:31;;;;;;;;;0.75;0.75;;;;;25.55;32.27;101605.16;5034005;28;45633;-59
2022/06/09 11:54:03;;;;;;;;;1.00;1.00;;;;;25.59;30.82;101598.38;5050793;28;45318;-59